Time;durP1;ratioP1;P1;durP2;ratioP2;P2;SDS_P1;SDS_P2;PMS_P1;PMS_P2;Temp;Humidity;BMP_temperature;BMP_pressure;BME280_temperature;BME280_humidity;BME280_pressure;Samples;Min_cycle;Max_cycle;Signal;HPM_P1;HPM_P2
2022/05/17 00:02:13;;;;;;;10.45;3.90;;;;;;;;;;4998212;28;20045;-79
2022/05/17 00:04:39;;;;;;;9.82;4.53;;;;;;;;;;4998382;28;20050;-79
2022/05/17 00:07:05;;;;;;;9.88;3.70;;;;;;;;;;5005609;28;20057;-79
2022/05/17 00:09:32;;;;;;;12.57;4.18;;;;;;;;;;5004814;28;20035;-79
2022/05/17 00:12:07;;;;;;;11.50;4.00;;;;;;;;;;4988884;28;20085;-79
2022/05/17 00:14:34;;;;;;;12.43;4.15;;;;;;;;;;5001085;28;20045;-79
2022/05/17 00:17:04;;;;;;;13.50;4.22;;;;;;;;;;4993740;28;20046;-79
2022/05/17 00:19:30;;;;;;;15.00;4.28;;;;;;;;;;5004699;28;20107;-79
2022/05/17 00:21:56;;;;;;;15.23;4.13;;;;;;;;;;4985981;28;20047;-79
2022/05/17 00:24:24;;;;;;;10.88;3.83;;;;;;;;;;4980832;28;20138;-80
2022/05/17 00:26:50;;;;;;;10.07;4.05;;;;;;;;;;4995880;28;20778;-80
2022/05/17 00:29:17;;;;;;;9.48;4.10;;;;;;;;;;5002420;28;20054;-80
2022/05/17 00:31:43;;;;;;;15.85;4.43;;;;;;;;;;4999509;28;20057;-80
2022/05/17 00:34:09;;;;;;;12.45;4.30;;;;;;;;;;4997028;28;20050;-79
2022/05/17 00:36:35;;;;;;;10.20;4.25;;;;;;;;;;5000763;28;20050;-79
2022/05/17 00:39:02;;;;;;;8.68;3.88;;;;;;;;;;5003387;28;20049;-79
2022/05/17 00:41:28;;;;;;;12.20;3.85;;;;;;;;;;4995594;28;20049;-79
2022/05/17 00:46:54;;;;;;;11.98;3.75;;;;;;;;;;4991413;28;20052;-80
2022/05/17 00:49:43;;;;;;;12.15;3.78;;;;;;;;;;4991263;28;20046;-80
2022/05/17 00:52:11;;;;;;;11.77;4.05;;;;;;;;;;5003030;28;20104;-79
2022/05/17 00:54:38;;;;;;;11.82;3.92;;;;;;;;;;4995627;28;20089;-79
2022/05/17 00:57:23;;;;;;;10.50;3.63;;;;;;;;;;5000615;28;20099;-79
2022/05/17 00:59:52;;;;;;;11.07;3.70;;;;;;;;;;4983796;28;20382;-79
2022/05/17 01:02:18;;;;;;;13.48;4.40;;;;;;;;;;4997975;28;20050;-79
2022/05/17 01:04:44;;;;;;;16.25;3.70;;;;;;;;;;5003599;28;20057;-79
2022/05/17 01:07:19;;;;;;;10.60;4.00;;;;;;;;;;5010170;28;20053;-79
2022/05/17 01:09:45;;;;;;;13.73;4.28;;;;;;;;;;4993448;28;20053;-79
2022/05/17 01:12:11;;;;;;;11.35;3.65;;;;;;;;;;4998439;28;20057;-79
2022/05/17 01:17:23;;;;;;;8.88;3.67;;;;;;;;;;4999362;28;20046;-80
2022/05/17 01:19:50;;;;;;;12.00;3.70;;;;;;;;;;4988535;28;20038;-79
2022/05/17 01:22:17;;;;;;;11.43;3.75;;;;;;;;;;5003232;28;20053;-79
2022/05/17 01:24:43;;;;;;;14.40;4.05;;;;;;;;;;4982761;28;20383;-79
2022/05/17 01:27:15;;;;;;;9.45;4.30;;;;;;;;;;5007430;28;20049;-79
2022/05/17 01:29:45;;;;;;;10.20;3.83;;;;;;;;;;4992364;28;20050;-79
2022/05/17 01:32:14;;;;;;;9.43;3.70;;;;;;;;;;4995947;28;20046;-79
2022/05/17 01:34:40;;;;;;;10.70;3.60;;;;;;;;;;4991743;28;20046;-79
2022/05/17 01:37:06;;;;;;;10.55;4.13;;;;;;;;;;4999147;28;20037;-79
2022/05/17 01:39:33;;;;;;;11.80;3.92;;;;;;;;;;5002906;28;20053;-79
2022/05/17 01:41:59;;;;;;;10.40;3.72;;;;;;;;;;4990134;28;20054;-79
2022/05/17 01:44:28;;;;;;;8.05;3.85;;;;;;;;;;4998568;28;20494;-79
2022/05/17 01:46:54;;;;;;;12.55;4.18;;;;;;;;;;4997545;28;20121;-80
2022/05/17 01:49:20;;;;;;;12.15;4.25;;;;;;;;;;4999459;28;20037;-79
2022/05/17 01:51:46;;;;;;;10.68;4.10;;;;;;;;;;5005260;28;20049;-79
2022/05/17 01:54:12;;;;;;;14.57;3.90;;;;;;;;;;4979009;28;20049;-79
2022/05/17 01:56:38;;;;;;;12.95;4.35;;;;;;;;;;4989804;28;20042;-79
2022/05/17 01:59:04;;;;;;;14.20;4.65;;;;;;;;;;4994606;28;20054;-80
2022/05/17 02:01:30;;;;;;;12.77;3.85;;;;;;;;;;5006583;28;20100;-80
2022/05/17 02:03:56;;;;;;;12.25;4.00;;;;;;;;;;5004706;28;20046;-80
2022/05/17 02:06:23;;;;;;;11.02;4.22;;;;;;;;;;5008967;28;20057;-79
2022/05/17 02:08:49;;;;;;;9.27;3.67;;;;;;;;;;4982966;28;20042;-79
2022/05/17 02:11:15;;;;;;;13.27;3.85;;;;;;;;;;4992663;28;20513;-79
2022/05/17 02:13:44;;;;;;;14.68;3.70;;;;;;;;;;4998536;28;20121;-79
2022/05/17 02:16:10;;;;;;;9.50;3.90;;;;;;;;;;5000103;28;20048;-80
2022/05/17 02:18:37;;;;;;;10.43;4.22;;;;;;;;;;5003521;28;20057;-79
2022/05/17 02:21:03;;;;;;;12.65;4.00;;;;;;;;;;5008996;28;20038;-79
2022/05/17 02:23:30;;;;;;;13.85;4.18;;;;;;;;;;5002672;28;20483;-80
2022/05/17 02:25:56;;;;;;;9.95;3.80;;;;;;;;;;5012702;28;20054;-80
2022/05/17 02:28:22;;;;;;;10.48;3.65;;;;;;;;;;5000203;28;20051;-80
2022/05/17 02:30:49;;;;;;;15.13;3.95;;;;;;;;;;4995560;28;20117;-80
2022/05/17 02:33:16;;;;;;;12.77;4.72;;;;;;;;;;4993375;28;20486;-79
2022/05/17 02:35:42;;;;;;;14.32;4.88;;;;;;;;;;4999919;28;20077;-79
2022/05/17 02:38:09;;;;;;;14.07;4.00;;;;;;;;;;4999064;28;20048;-79
2022/05/17 02:40:35;;;;;;;10.30;3.70;;;;;;;;;;4997679;28;20041;-79
2022/05/17 02:43:01;;;;;;;9.30;3.85;;;;;;;;;;4994630;28;20785;-79
2022/05/17 02:45:28;;;;;;;16.38;4.55;;;;;;;;;;4999552;28;20047;-79
2022/05/17 02:47:54;;;;;;;10.05;4.13;;;;;;;;;;4995519;28;20064;-79
2022/05/17 02:50:20;;;;;;;10.05;4.05;;;;;;;;;;5003535;28;20486;-78
2022/05/17 02:52:47;;;;;;;9.40;3.63;;;;;;;;;;5009450;28;20064;-79
2022/05/17 02:55:13;;;;;;;11.75;3.70;;;;;;;;;;4992408;28;20046;-79
2022/05/17 02:57:39;;;;;;;10.75;4.13;;;;;;;;;;5000855;28;20081;-78
2022/05/17 03:00:08;;;;;;;13.13;4.05;;;;;;;;;;5004705;28;20042;-79
2022/05/17 03:02:34;;;;;;;12.90;3.88;;;;;;;;;;4993875;28;20399;-79
2022/05/17 03:05:02;;;;;;;11.88;4.30;;;;;;;;;;5008471;28;20042;-79
2022/05/17 03:07:29;;;;;;;12.52;4.28;;;;;;;;;;5008897;28;20056;-79
2022/05/17 03:09:54;;;;;;;12.80;4.55;;;;;;;;;;4993807;28;20483;-79
2022/05/17 03:12:23;;;;;;;12.30;3.90;;;;;;;;;;4993251;28;20056;-79
2022/05/17 03:14:49;;;;;;;12.95;4.30;;;;;;;;;;5003839;28;20046;-79
2022/05/17 03:17:16;;;;;;;13.23;4.43;;;;;;;;;;5002617;28;20054;-79
2022/05/17 03:19:43;;;;;;;10.15;4.03;;;;;;;;;;4988079;28;20054;-78
2022/05/17 03:22:10;;;;;;;14.13;4.20;;;;;;;;;;4999306;28;20068;-81
2022/05/17 03:24:37;;;;;;;11.52;3.70;;;;;;;;;;4983836;28;20391;-78
2022/05/17 03:27:03;;;;;;;11.38;4.38;;;;;;;;;;4986862;28;20423;-79
2022/05/17 03:29:29;;;;;;;10.15;4.25;;;;;;;;;;4977703;28;20050;-79
2022/05/17 03:31:55;;;;;;;7.35;3.30;;;;;;;;;;4991108;28;20138;-78
2022/05/17 03:34:21;;;;;;;12.20;3.92;;;;;;;;;;5000680;28;20375;-79
2022/05/17 03:36:47;;;;;;;12.68;3.88;;;;;;;;;;4990248;28;20161;-79
2022/05/17 03:39:16;;;;;;;9.90;3.85;;;;;;;;;;4990048;28;20043;-79
2022/05/17 03:41:42;;;;;;;10.60;3.72;;;;;;;;;;4997796;28;20133;-79
2022/05/17 03:44:08;;;;;;;12.35;3.83;;;;;;;;;;5003679;28;20046;-78
2022/05/17 03:46:35;;;;;;;12.65;4.03;;;;;;;;;;4996737;28;20037;-79
2022/05/17 03:49:01;;;;;;;13.52;3.80;;;;;;;;;;4991387;28;20051;-79
2022/05/17 03:51:27;;;;;;;13.23;4.25;;;;;;;;;;4995592;28;20113;-78
2022/05/17 03:53:53;;;;;;;12.38;4.00;;;;;;;;;;5001253;28;20049;-78
2022/05/17 03:56:22;;;;;;;8.77;3.45;;;;;;;;;;4995070;28;20046;-78
2022/05/17 03:58:48;;;;;;;11.05;3.63;;;;;;;;;;5005665;28;20120;-79
2022/05/17 04:01:14;;;;;;;12.75;3.75;;;;;;;;;;4979538;28;20558;-79
2022/05/17 04:03:41;;;;;;;10.73;3.97;;;;;;;;;;5001990;28;20165;-79
2022/05/17 04:06:07;;;;;;;10.32;3.78;;;;;;;;;;5007454;28;20054;-79
2022/05/17 04:08:34;;;;;;;9.93;4.20;;;;;;;;;;5004650;28;20490;-78
2022/05/17 04:11:00;;;;;;;9.95;3.78;;;;;;;;;;5000203;28;20100;-78
2022/05/17 04:13:29;;;;;;;12.20;4.05;;;;;;;;;;4995333;28;20046;-79
2022/05/17 04:15:56;;;;;;;9.18;4.07;;;;;;;;;;4999610;28;20486;-79
2022/05/17 04:18:22;;;;;;;13.15;4.07;;;;;;;;;;5000899;28;20038;-79
2022/05/17 04:20:48;;;;;;;11.75;4.47;;;;;;;;;;4994700;28;20097;-79
2022/05/17 04:23:14;;;;;;;11.40;3.80;;;;;;;;;;4997825;28;20046;-79
2022/05/17 04:25:40;;;;;;;12.93;4.85;;;;;;;;;;4998711;28;20059;-78
2022/05/17 04:28:06;;;;;;;10.20;3.95;;;;;;;;;;5006997;28;20057;-79
2022/05/17 04:30:32;;;;;;;11.75;4.10;;;;;;;;;;4998460;28;20073;-79
2022/05/17 04:33:00;;;;;;;10.35;4.00;;;;;;;;;;5004908;28;20164;-79
2022/05/17 04:35:26;;;;;;;12.20;4.28;;;;;;;;;;4994859;28;20073;-79
2022/05/17 04:37:52;;;;;;;10.35;3.90;;;;;;;;;;5001742;28;20046;-79
2022/05/17 04:40:18;;;;;;;12.05;4.57;;;;;;;;;;4997709;28;20487;-79
2022/05/17 04:42:46;;;;;;;12.32;3.95;;;;;;;;;;5001089;28;20057;-79
2022/05/17 04:45:16;;;;;;;11.48;4.18;;;;;;;;;;5020904;28;20042;-78
2022/05/17 04:47:43;;;;;;;10.10;4.10;;;;;;;;;;4999278;28;20039;-80
2022/05/17 04:50:10;;;;;;;10.50;4.22;;;;;;;;;;5000400;28;20129;-78
2022/05/17 04:52:36;;;;;;;9.82;3.72;;;;;;;;;;4977651;28;20049;-79
2022/05/17 04:55:05;;;;;;;10.75;3.88;;;;;;;;;;5002951;28;20081;-79
2022/05/17 04:57:31;;;;;;;11.60;4.20;;;;;;;;;;5009847;28;20058;-80
2022/05/17 04:59:59;;;;;;;12.02;3.88;;;;;;;;;;4995144;28;20053;-79
2022/05/17 05:02:25;;;;;;;9.32;3.60;;;;;;;;;;5000299;28;20053;-79
2022/05/17 05:04:51;;;;;;;10.75;4.28;;;;;;;;;;4995224;28;20433;-79
2022/05/17 05:07:18;;;;;;;9.77;3.83;;;;;;;;;;5010738;28;20046;-78
2022/05/17 05:09:47;;;;;;;12.70;4.32;;;;;;;;;;5001212;28;20042;-78
2022/05/17 05:12:13;;;;;;;11.45;4.57;;;;;;;;;;4992138;28;20051;-78
2022/05/17 05:14:39;;;;;;;10.35;4.40;;;;;;;;;;4998274;28;20042;-79
2022/05/17 05:17:05;;;;;;;10.55;4.45;;;;;;;;;;4990770;28;20050;-78
2022/05/17 05:19:32;;;;;;;10.73;3.78;;;;;;;;;;4991884;28;20054;-79
2022/05/17 05:21:58;;;;;;;11.73;4.20;;;;;;;;;;5004854;28;20048;-79
2022/05/17 05:24:24;;;;;;;13.23;4.20;;;;;;;;;;4992537;28;20069;-79
2022/05/17 05:26:50;;;;;;;14.02;4.05;;;;;;;;;;4987164;28;20498;-79
2022/05/17 05:29:18;;;;;;;7.55;3.35;;;;;;;;;;5004179;28;20456;-80
2022/05/17 05:31:44;;;;;;;12.05;4.30;;;;;;;;;;4995070;28;20046;-80
2022/05/17 05:34:10;;;;;;;10.55;3.85;;;;;;;;;;5005398;28;20042;-80
2022/05/17 05:36:36;;;;;;;10.38;3.90;;;;;;;;;;4996461;28;20045;-80
2022/05/17 05:39:03;;;;;;;11.23;3.80;;;;;;;;;;5003069;28;20181;-79
2022/05/17 05:41:29;;;;;;;11.38;4.57;;;;;;;;;;5004072;28;20053;-79
2022/05/17 05:43:58;;;;;;;9.57;3.63;;;;;;;;;;4991473;28;20393;-80
2022/05/17 05:46:24;;;;;;;11.30;3.92;;;;;;;;;;5000558;28;20046;-81
2022/05/17 05:48:50;;;;;;;8.88;4.03;;;;;;;;;;4992890;28;20120;-80
2022/05/17 05:51:17;;;;;;;14.43;5.60;;;;;;;;;;5005777;28;20069;-80
2022/05/17 05:53:43;;;;;;;11.02;4.60;;;;;;;;;;4983305;28;20085;-80
2022/05/17 05:56:11;;;;;;;9.63;3.88;;;;;;;;;;5000238;28;20050;-79
2022/05/17 05:58:39;;;;;;;12.88;4.38;;;;;;;;;;4992758;28;20054;-81
2022/05/17 06:01:11;;;;;;;14.48;4.72;;;;;;;;;;5003936;28;20042;-81
2022/05/17 06:03:37;;;;;;;10.32;4.38;;;;;;;;;;4999132;28;20042;-80
2022/05/17 06:06:03;;;;;;;10.38;4.25;;;;;;;;;;4997988;28;20046;-80
2022/05/17 06:08:29;;;;;;;10.23;4.13;;;;;;;;;;4994981;28;20065;-80
2022/05/17 06:10:56;;;;;;;12.30;4.22;;;;;;;;;;4987111;28;20050;-80
2022/05/17 06:13:22;;;;;;;13.20;4.47;;;;;;;;;;4972137;28;20173;-80
2022/05/17 06:15:52;;;;;;;13.50;4.60;;;;;;;;;;4989094;28;20188;-81
2022/05/17 06:18:19;;;;;;;12.02;4.88;;;;;;;;;;4988537;28;20053;-81
2022/05/17 06:20:49;;;;;;;10.90;4.38;;;;;;;;;;4986223;28;20596;-80
2022/05/17 06:23:15;;;;;;;10.52;4.57;;;;;;;;;;4990781;28;20177;-80
2022/05/17 06:25:41;;;;;;;10.88;4.22;;;;;;;;;;4988325;28;20081;-80
2022/05/17 06:28:07;;;;;;;14.38;4.35;;;;;;;;;;4993298;28;20128;-80
2022/05/17 06:30:36;;;;;;;13.00;4.22;;;;;;;;;;4990336;28;20550;-81
2022/05/17 06:33:02;;;;;;;13.80;4.63;;;;;;;;;;4985893;28;20502;-79
2022/05/17 06:35:28;;;;;;;10.88;4.35;;;;;;;;;;4986122;28;20121;-80
2022/05/17 06:37:55;;;;;;;9.70;4.32;;;;;;;;;;4976216;28;20069;-80
2022/05/17 06:40:21;;;;;;;12.77;5.03;;;;;;;;;;4975310;28;20042;-80
2022/05/17 06:42:47;;;;;;;10.15;4.13;;;;;;;;;;5005807;28;20053;-80
2022/05/17 06:45:13;;;;;;;13.00;4.30;;;;;;;;;;4991297;28;20039;-80
2022/05/17 06:47:40;;;;;;;12.38;4.55;;;;;;;;;;4973420;28;20236;-80
2022/05/17 06:50:06;;;;;;;13.65;4.50;;;;;;;;;;4985647;28;20045;-80
2022/05/17 06:52:35;;;;;;;12.23;4.30;;;;;;;;;;5001895;28;20053;-81
2022/05/17 06:55:01;;;;;;;12.98;4.40;;;;;;;;;;5007159;28;20042;-80
2022/05/17 06:57:27;;;;;;;15.73;4.70;;;;;;;;;;4989753;28;20061;-79
2022/05/17 06:59:53;;;;;;;15.52;4.60;;;;;;;;;;5007769;28;20056;-80
2022/05/17 07:02:19;;;;;;;10.95;3.88;;;;;;;;;;5007900;28;20054;-79
2022/05/17 07:04:45;;;;;;;10.20;3.90;;;;;;;;;;5002132;28;20046;-79
2022/05/17 07:07:11;;;;;;;8.43;4.10;;;;;;;;;;4997369;28;20046;-79
2022/05/17 07:09:38;;;;;;;14.18;4.38;;;;;;;;;;4983779;28;20053;-79
2022/05/17 07:14:49;;;;;;;10.82;4.55;;;;;;;;;;5004671;28;20050;-79
2022/05/17 07:17:22;;;;;;;12.70;4.15;;;;;;;;;;5010230;28;20119;-79
2022/05/17 07:19:48;;;;;;;12.38;3.67;;;;;;;;;;4999872;28;20058;-79
2022/05/17 07:22:15;;;;;;;10.70;3.85;;;;;;;;;;5007420;28;20052;-79
2022/05/17 07:24:41;;;;;;;11.93;4.78;;;;;;;;;;5006883;28;20139;-79
2022/05/17 07:27:09;;;;;;;11.77;4.10;;;;;;;;;;4993259;28;20054;-79
2022/05/17 07:29:36;;;;;;;11.18;4.38;;;;;;;;;;4971293;28;20073;-80
2022/05/17 07:32:02;;;;;;;14.77;4.85;;;;;;;;;;5004150;28;20054;-78
2022/05/17 07:34:28;;;;;;;11.85;4.60;;;;;;;;;;5001694;28;20038;-79
2022/05/17 07:36:55;;;;;;;12.95;4.88;;;;;;;;;;4992646;28;20047;-79
2022/05/17 07:39:21;;;;;;;14.20;4.28;;;;;;;;;;4994149;28;20455;-78
2022/05/17 07:41:48;;;;;;;14.05;5.57;;;;;;;;;;4993853;28;20038;-79
2022/05/17 07:44:14;;;;;;;13.15;4.88;;;;;;;;;;4995934;28;20046;-78
2022/05/17 07:46:43;;;;;;;12.27;4.50;;;;;;;;;;4994148;28;20165;-79
2022/05/17 07:49:09;;;;;;;10.93;4.70;;;;;;;;;;4998988;28;20122;-78
2022/05/17 07:51:35;;;;;;;10.85;4.57;;;;;;;;;;5003063;28;20129;-79
2022/05/17 07:54:01;;;;;;;10.93;4.70;;;;;;;;;;5006934;28;20157;-79
2022/05/17 07:56:27;;;;;;;13.60;5.20;;;;;;;;;;5003701;28;20084;-79
2022/05/17 07:58:53;;;;;;;13.00;4.97;;;;;;;;;;5009599;28;20048;-79
2022/05/17 08:01:19;;;;;;;13.32;5.03;;;;;;;;;;4985760;28;20047;-80
2022/05/17 08:03:45;;;;;;;12.77;5.15;;;;;;;;;;4999230;28;20494;-79
2022/05/17 08:06:11;;;;;;;11.75;5.13;;;;;;;;;;4988265;28;20092;-79
2022/05/17 08:08:37;;;;;;;14.13;5.38;;;;;;;;;;5005469;28;20430;-79
2022/05/17 08:11:05;;;;;;;14.77;5.25;;;;;;;;;;4992955;28;20077;-79
2022/05/17 08:13:31;;;;;;;12.70;4.68;;;;;;;;;;4998207;28;20050;-79
2022/05/17 08:15:57;;;;;;;13.75;4.70;;;;;;;;;;4989753;28;20061;-79
2022/05/17 08:18:23;;;;;;;11.90;4.38;;;;;;;;;;4996957;28;20129;-79
2022/05/17 08:20:49;;;;;;;11.13;4.78;;;;;;;;;;5005675;28;20099;-79
2022/05/17 08:23:18;;;;;;;15.57;5.10;;;;;;;;;;5007470;28;20046;-79
2022/05/17 08:28:29;;;;;;;12.50;5.00;;;;;;;;;;5007509;28;20108;-79
2022/05/17 08:30:55;;;;;;;11.68;4.60;;;;;;;;;;5006108;28;20433;-79
2022/05/17 08:33:23;;;;;;;11.48;4.78;;;;;;;;;;5001963;28;20042;-79
2022/05/17 08:36:01;;;;;;;14.43;4.97;;;;;;;;;;4971393;28;20047;-79
2022/05/17 08:38:35;;;;;;;12.38;4.88;;;;;;;;;;4984737;28;20605;-79
2022/05/17 08:41:11;;;;;;;8.77;4.20;;;;;;;;;;5003578;28;20093;-78
2022/05/17 08:43:43;;;;;;;10.20;5.28;;;;;;;;;;4985241;28;20050;-79
2022/05/17 08:46:09;;;;;;;11.07;4.47;;;;;;;;;;4995846;28;20053;-79
2022/05/17 08:48:40;;;;;;;11.75;5.25;;;;;;;;;;4980223;28;20058;-79
2022/05/17 08:51:08;;;;;;;13.68;4.55;;;;;;;;;;4994833;28;20082;-79
2022/05/17 08:53:37;;;;;;;13.38;5.00;;;;;;;;;;4996796;28;20042;-79
2022/05/17 08:56:03;;;;;;;13.00;4.75;;;;;;;;;;5005540;28;20042;-79
2022/05/17 08:58:31;;;;;;;10.15;4.40;;;;;;;;;;5002602;28;20038;-78
2022/05/17 09:00:59;;;;;;;13.23;4.50;;;;;;;;;;4997360;28;20045;-79
2022/05/17 09:03:51;;;;;;;10.27;4.20;;;;;;;;;;4993290;28;20057;-78
2022/05/17 09:06:24;;;;;;;11.50;5.13;;;;;;;;;;5012240;28;20105;-79
2022/05/17 09:08:50;;;;;;;11.98;5.07;;;;;;;;;;4996944;28;20074;-79
2022/05/17 09:11:24;;;;;;;17.15;5.47;;;;;;;;;;4994696;28;20080;-79
2022/05/17 09:13:54;;;;;;;12.45;4.70;;;;;;;;;;4997671;28;20270;-79
2022/05/17 09:16:21;;;;;;;13.73;5.10;;;;;;;;;;5003604;28;20052;-79
2022/05/17 09:18:48;;;;;;;11.38;4.90;;;;;;;;;;5007150;28;20132;-78
2022/05/17 09:21:27;;;;;;;12.85;4.82;;;;;;;;;;5013203;28;20049;-79
2022/05/17 09:23:54;;;;;;;16.95;5.05;;;;;;;;;;5001307;28;20046;-78
2022/05/17 09:26:20;;;;;;;13.75;4.93;;;;;;;;;;5010431;28;20383;-79
2022/05/17 09:28:58;;;;;;;16.50;5.10;;;;;;;;;;4997985;28;20414;-79
2022/05/17 09:31:24;;;;;;;12.23;4.75;;;;;;;;;;5006333;28;20482;-79
2022/05/17 09:33:50;;;;;;;11.85;4.78;;;;;;;;;;5007834;28;20041;-79
2022/05/17 09:36:24;;;;;;;13.70;5.03;;;;;;;;;;5011669;28;20586;-79
2022/05/17 09:38:52;;;;;;;10.55;4.40;;;;;;;;;;4999572;28;20042;-79
2022/05/17 09:41:21;;;;;;;10.43;4.32;;;;;;;;;;5008735;28;20038;-79
2022/05/17 09:43:56;;;;;;;13.23;4.72;;;;;;;;;;5003049;28;20379;-78
2022/05/17 09:46:30;;;;;;;9.65;4.30;;;;;;;;;;5008583;28;20042;-79
2022/05/17 09:54:44;;;;;;;14.10;4.53;;;;;;;;;;5000401;28;20355;-79
2022/05/17 09:57:16;;;;;;;10.82;4.07;;;;;;;;;;4996080;28;20133;-78
2022/05/17 09:59:43;;;;;;;15.48;4.65;;;;;;;;;;4992526;28;20039;-79
2022/05/17 10:02:29;;;;;;;9.27;4.15;;;;;;;;;;5027619;28;20058;-79
2022/05/17 10:04:58;;;;;;;9.90;3.97;;;;;;;;;;5002594;28;20054;-78
2022/05/17 10:07:26;;;;;;;11.25;4.05;;;;;;;;;;5008263;28;20038;-78
2022/05/17 10:09:52;;;;;;;12.63;4.50;;;;;;;;;;4994524;28;20054;-78
2022/05/17 10:12:33;;;;;;;11.82;4.55;;;;;;;;;;4999363;28;20039;-78
2022/05/17 10:15:03;;;;;;;9.68;4.20;;;;;;;;;;5003490;28;20132;-79
2022/05/17 10:17:30;;;;;;;13.30;4.40;;;;;;;;;;4990494;28;20181;-79
2022/05/17 10:19:58;;;;;;;10.85;4.00;;;;;;;;;;5009005;28;20046;-79
2022/05/17 10:22:33;;;;;;;8.85;3.95;;;;;;;;;;4983818;28;20049;-80
2022/05/17 10:25:02;;;;;;;7.97;3.40;;;;;;;;;;5003966;28;20054;-78
2022/05/17 10:27:36;;;;;;;7.25;3.30;;;;;;;;;;4990008;28;20437;-79
2022/05/17 10:30:08;;;;;;;8.25;3.88;;;;;;;;;;4995408;28;20072;-79
2022/05/17 10:32:42;;;;;;;10.13;3.97;;;;;;;;;;5006064;28;20038;-79
2022/05/17 10:35:16;;;;;;;10.48;3.72;;;;;;;;;;4987725;28;20305;-79
2022/05/17 10:37:46;;;;;;;10.02;4.13;;;;;;;;;;4990008;28;20053;-79
2022/05/17 10:40:30;;;;;;;12.50;3.80;;;;;;;;;;4986971;28;20038;-79
2022/05/17 10:42:57;;;;;;;11.93;3.90;;;;;;;;;;4993565;28;20053;-78
2022/05/17 10:45:33;;;;;;;11.75;3.88;;;;;;;;;;5008286;28;20402;-78
2022/05/17 10:48:21;;;;;;;12.65;3.80;;;;;;;;;;4992920;28;20042;-79
2022/05/17 10:50:50;;;;;;;11.73;3.60;;;;;;;;;;4972017;28;20055;-79
2022/05/17 10:53:16;;;;;;;12.52;4.63;;;;;;;;;;4986718;28;20046;-79
2022/05/17 10:55:55;;;;;;;12.98;3.85;;;;;;;;;;4978599;28;20049;-79
2022/05/17 10:58:41;;;;;;;10.48;3.40;;;;;;;;;;4987578;28;20089;-79
2022/05/17 11:01:26;;;;;;;10.30;3.80;;;;;;;;;;4972516;28;20065;-79
2022/05/17 11:04:10;;;;;;;8.95;3.45;;;;;;;;;;4988189;28;20054;-79
2022/05/17 11:06:42;;;;;;;9.73;3.45;;;;;;;;;;5000840;28;20164;-79
2022/05/17 11:09:15;;;;;;;8.93;3.75;;;;;;;;;;5008229;28;20042;-80
2022/05/17 11:12:04;;;;;;;8.88;3.28;;;;;;;;;;4981483;28;20506;-79
2022/05/17 11:14:51;;;;;;;8.68;3.40;;;;;;;;;;5006404;28;20398;-80
2022/05/17 11:17:27;;;;;;;11.93;3.38;;;;;;;;;;5011830;28;20493;-80
2022/05/17 11:19:53;;;;;;;10.45;3.80;;;;;;;;;;4982084;28;20047;-80
2022/05/17 11:22:26;;;;;;;10.20;3.53;;;;;;;;;;4991431;28;20064;-82
2022/05/17 11:25:02;;;;;;;10.13;3.65;;;;;;;;;;5003389;28;20058;-80
2022/05/17 11:27:28;;;;;;;8.52;3.40;;;;;;;;;;5011926;28;20046;-80
2022/05/17 11:30:08;;;;;;;8.75;3.42;;;;;;;;;;4989138;28;20061;-80
2022/05/17 11:32:36;;;;;;;10.52;3.40;;;;;;;;;;4991048;28;20062;-80
2022/05/17 11:35:25;;;;;;;9.98;3.42;;;;;;;;;;4978494;28;20054;-80
2022/05/17 11:37:51;;;;;;;7.85;3.13;;;;;;;;;;4970598;28;20051;-80
2022/05/17 11:40:36;;;;;;;8.65;3.10;;;;;;;;;;4970559;28;20556;-80
2022/05/17 11:45:50;;;;;;;9.50;3.17;;;;;;;;;;5004034;28;20046;-80
2022/05/17 11:48:17;;;;;;;10.10;2.95;;;;;;;;;;4992003;28;20042;-80
2022/05/17 11:50:52;;;;;;;8.90;2.70;;;;;;;;;;4987920;28;20414;-80
2022/05/17 11:53:24;;;;;;;6.28;2.55;;;;;;;;;;4990399;28;20167;-80
2022/05/17 11:56:09;;;;;;;7.80;2.83;;;;;;;;;;4978524;28;20153;-80
2022/05/17 11:58:35;;;;;;;6.55;2.88;;;;;;;;;;4994951;28;20501;-81
2022/05/17 12:01:01;;;;;;;6.38;2.65;;;;;;;;;;4994823;28;20047;-80
2022/05/17 12:03:50;;;;;;;6.75;2.42;;;;;;;;;;4988379;28;20427;-80
2022/05/17 12:06:28;;;;;;;7.57;2.58;;;;;;;;;;4990054;28;20057;-80
2022/05/17 12:09:01;;;;;;;9.65;2.67;;;;;;;;;;4988010;28;20042;-80
2022/05/17 12:11:32;;;;;;;9.23;3.13;;;;;;;;;;4971853;28;20141;-80
2022/05/17 12:14:20;;;;;;;6.88;2.17;;;;;;;;;;4993256;28;20041;-79
2022/05/17 12:16:48;;;;;;;8.45;2.70;;;;;;;;;;4998939;28;20054;-80
2022/05/17 12:19:39;;;;;;;7.43;2.28;;;;;;;;;;4989068;28;20042;-80
2022/05/17 12:22:20;;;;;;;7.47;2.28;;;;;;;;;;4985131;28;20137;-80
2022/05/17 12:24:58;;;;;;;7.60;2.45;;;;;;;;;;4995427;28;20097;-80
2022/05/17 12:27:26;;;;;;;7.25;2.17;;;;;;;;;;4990550;28;20134;-80
2022/05/17 12:32:37;;;;;;;8.18;2.72;;;;;;;;;;5014533;28;20061;-79
2022/05/17 12:35:08;;;;;;;6.05;2.38;;;;;;;;;;4998371;28;20046;-80
2022/05/17 12:37:38;;;;;;;5.82;2.38;;;;;;;;;;4994973;28;20043;-79
2022/05/17 12:43:02;;;;;;;9.77;2.88;;;;;;;;;;4995308;28;20049;-79
2022/05/17 12:45:30;;;;;;;23.98;3.70;;;;;;;;;;4988867;28;20041;-80
2022/05/17 12:47:57;;;;;;;6.05;2.10;;;;;;;;;;5014639;28;20080;-80
2022/05/17 12:50:44;;;;;;;9.43;2.58;;;;;;;;;;5012176;28;20046;-80
2022/05/17 12:53:30;;;;;;;5.40;2.28;;;;;;;;;;5001272;28;20043;-80
2022/05/17 12:56:01;;;;;;;5.85;2.33;;;;;;;;;;4988934;28;20050;-79
2022/05/17 12:58:27;;;;;;;7.70;2.42;;;;;;;;;;4998584;28;20172;-80
2022/05/17 13:00:55;;;;;;;8.68;3.00;;;;;;;;;;4998047;28;20070;-79
2022/05/17 13:03:23;;;;;;;5.65;2.35;;;;;;;;;;4986018;28;20057;-80
2022/05/17 13:05:51;;;;;;;9.10;2.90;;;;;;;;;;4993411;28;20369;-79
2022/05/17 13:08:31;;;;;;;5.40;2.42;;;;;;;;;;4975381;28;20051;-80
2022/05/17 13:11:04;;;;;;;6.63;2.67;;;;;;;;;;4980817;28;20043;-79
2022/05/17 13:13:34;;;;;;;5.57;2.25;;;;;;;;;;4996058;28;20487;-79
2022/05/17 13:16:03;;;;;;;10.63;2.88;;;;;;;;;;5006544;28;20509;-80
2022/05/17 13:18:49;;;;;;;5.63;2.30;;;;;;;;;;4993128;28;20104;-79
2022/05/17 13:21:23;;;;;;;5.85;2.10;;;;;;;;;;4973137;28;20546;-79
2022/05/17 13:23:49;;;;;;;5.95;2.20;;;;;;;;;;4987767;28;20048;-79
2022/05/17 13:26:22;;;;;;;6.30;2.28;;;;;;;;;;4992354;28;20413;-79
2022/05/17 13:28:48;;;;;;;5.85;2.33;;;;;;;;;;4992330;28;20051;-79
2022/05/17 13:31:19;;;;;;;7.38;2.47;;;;;;;;;;4974954;28;20054;-79
2022/05/17 13:33:54;;;;;;;6.30;2.08;;;;;;;;;;4986449;28;20045;-79
2022/05/17 13:36:34;;;;;;;7.18;2.40;;;;;;;;;;4999581;28;20121;-80
2022/05/17 13:39:00;;;;;;;8.88;3.00;;;;;;;;;;5011684;28;20129;-80
2022/05/17 13:41:30;;;;;;;6.40;2.13;;;;;;;;;;5005366;28;20056;-79
2022/05/17 13:43:57;;;;;;;4.38;2.25;;;;;;;;;;5007584;28;20053;-79
2022/05/17 13:46:26;;;;;;;5.88;2.50;;;;;;;;;;4979558;28;20047;-79
2022/05/17 13:48:55;;;;;;;7.20;2.53;;;;;;;;;;4972938;28;20118;-79
2022/05/17 13:51:21;;;;;;;7.88;2.20;;;;;;;;;;4978218;28;20991;-80
2022/05/17 13:53:49;;;;;;;6.63;2.45;;;;;;;;;;4972515;28;20043;-79
2022/05/17 13:56:15;;;;;;;6.15;2.20;;;;;;;;;;4974382;28;20042;-80
2022/05/17 13:58:45;;;;;;;6.53;2.17;;;;;;;;;;4991615;28;20132;-79
2022/05/17 14:01:13;;;;;;;4.72;2.00;;;;;;;;;;4992725;28;20521;-79
2022/05/17 14:03:39;;;;;;;5.43;2.30;;;;;;;;;;4989286;28;20093;-79
2022/05/17 14:06:08;;;;;;;4.65;3.05;;;;;;;;;;4973005;28;20054;-79
2022/05/17 14:14:15;;;;;;;5.07;2.47;;;;;;;;;;4997549;28;20125;-79
2022/05/17 14:16:43;;;;;;;5.55;2.20;;;;;;;;;;4991505;28;20109;-80
2022/05/17 14:19:12;;;;;;;4.45;2.30;;;;;;;;;;4985426;28;20042;-79
2022/05/17 14:21:38;;;;;;;3.80;2.00;;;;;;;;;;4977223;28;20526;-79
2022/05/17 14:24:04;;;;;;;4.07;1.80;;;;;;;;;;4985846;28;20125;-79
2022/05/17 14:26:30;;;;;;;4.60;2.10;;;;;;;;;;4985757;28;20166;-79
2022/05/17 14:28:56;;;;;;;4.43;2.05;;;;;;;;;;5004273;28;20084;-79
2022/05/17 14:31:25;;;;;;;4.30;1.92;;;;;;;;;;5007933;28;20487;-80
2022/05/17 14:33:52;;;;;;;6.43;2.10;;;;;;;;;;4994425;28;20046;-79
2022/05/17 14:36:23;;;;;;;4.65;2.13;;;;;;;;;;4992267;28;20463;-80
2022/05/17 14:38:49;;;;;;;4.03;1.80;;;;;;;;;;4985220;28;20064;-80
2022/05/17 14:41:15;;;;;;;5.15;1.73;;;;;;;;;;4973262;28;20236;-79
2022/05/17 14:43:42;;;;;;;4.55;2.00;;;;;;;;;;4996060;28;20058;-79
2022/05/17 14:46:09;;;;;;;4.32;2.25;;;;;;;;;;4991666;28;20149;-80
2022/05/17 14:48:35;;;;;;;4.10;1.92;;;;;;;;;;4979356;28;20051;-80
2022/05/17 14:51:02;;;;;;;3.50;1.63;;;;;;;;;;4972541;28;20089;-79
2022/05/17 14:53:28;;;;;;;4.53;2.15;;;;;;;;;;4973154;28;20051;-80
2022/05/17 14:55:54;;;;;;;3.28;1.63;;;;;;;;;;4972501;28;20189;-79
2022/05/17 14:58:20;;;;;;;2.72;1.58;;;;;;;;;;4995050;28;20501;-81
2022/05/17 15:00:47;;;;;;;3.17;1.73;;;;;;;;;;4995263;28;20053;-79
2022/05/17 15:03:23;;;;;;;4.28;1.90;;;;;;;;;;5001302;28;20144;-80
2022/05/17 15:05:50;;;;;;;4.38;1.90;;;;;;;;;;4975365;28;20046;-80
2022/05/17 15:08:18;;;;;;;4.90;1.67;;;;;;;;;;4971567;28;20125;-80
2022/05/17 15:10:44;;;;;;;4.07;1.58;;;;;;;;;;4971915;28;20495;-80
2022/05/17 15:13:10;;;;;;;2.67;1.60;;;;;;;;;;4981434;28;20046;-80
2022/05/17 15:15:37;;;;;;;7.35;2.17;;;;;;;;;;4991575;28;20050;-80